createdAt,value
2024-02-08T06:46:49.460Z,9.40
2024-02-08T07:25:12.891Z,8.80
2024-02-08T07:49:52.751Z,7.23
2024-02-08T08:40:22.386Z,8.53
2024-02-08T08:42:51.728Z,9.93
2024-02-08T08:45:20.930Z,9.40
2024-02-08T08:47:55.647Z,8.77
2024-02-08T08:50:32.615Z,8.63
2024-02-08T08:53:10.103Z,9.70
2024-02-08T08:55:51.514Z,9.60
2024-02-08T08:58:24.415Z,9.07
2024-02-08T09:01:00.797Z,9.83
2024-02-08T09:03:30.270Z,9.63
2024-02-08T09:05:59.266Z,9.30
2024-02-08T09:08:45.960Z,9.93
2024-02-08T09:11:16.057Z,10.30
2024-02-08T09:13:46.445Z,10.33
2024-02-08T09:16:38.705Z,10.13
2024-02-08T09:19:09.016Z,9.03
2024-02-08T09:21:40.544Z,9.47
2024-02-08T09:24:19.354Z,9.70
2024-02-08T09:26:50.766Z,8.87
2024-02-08T09:32:23.741Z,9.57
2024-02-08T09:34:54.842Z,9.80
2024-02-08T09:37:23.634Z,9.43
2024-02-08T10:25:38.425Z,8.27
2024-02-08T10:28:09.048Z,5.23
2024-02-08T10:30:45.684Z,3.20
2024-02-08T10:33:17.974Z,1.70
2024-02-08T10:35:48.923Z,1.10
2024-02-08T10:38:26.690Z,0.90
2024-02-08T10:40:58.275Z,0.90
2024-02-08T10:43:38.708Z,0.73
2024-02-08T10:46:18.155Z,1.00
2024-02-08T10:48:50.978Z,0.90
2024-02-08T10:51:27.786Z,0.93
2024-02-08T10:54:06.995Z,0.87
2024-02-08T10:56:46.756Z,1.00
2024-02-08T10:59:40.638Z,0.90
2024-02-08T11:02:27.129Z,0.80
2024-02-08T11:05:14.423Z,0.77
2024-02-08T11:07:47.471Z,0.60
2024-02-08T11:10:22.787Z,0.60
2024-02-08T11:12:54.743Z,0.80
2024-02-08T11:15:32.995Z,0.67
2024-02-08T11:18:05.511Z,0.70
2024-02-08T11:20:43.987Z,0.67
2024-02-08T11:23:19.961Z,0.43
2024-02-08T11:25:48.334Z,0.80
2024-02-08T11:28:25.830Z,0.53
2024-02-08T11:30:57.358Z,0.50
2024-02-08T11:33:33.344Z,0.63
2024-02-08T11:36:14.104Z,0.70
2024-02-08T11:39:01.027Z,0.60
2024-02-08T11:41:33.849Z,0.40
2024-02-08T11:44:05.554Z,0.53
2024-02-08T11:47:11.210Z,0.60
2024-02-08T11:49:54.568Z,0.90
2024-02-08T11:52:25.620Z,0.67
2024-02-08T11:55:07.879Z,0.60
2024-02-08T11:57:42.392Z,0.57
2024-02-08T12:00:28.922Z,0.80
2024-02-08T12:03:39.798Z,0.90
2024-02-08T12:09:35.140Z,0.70
2024-02-08T12:12:33.593Z,0.90
2024-02-08T12:15:16.238Z,0.93
2024-02-08T12:21:12.974Z,0.70
2024-02-08T12:24:32.918Z,1.20
2024-02-08T12:27:27.244Z,0.70
2024-02-08T12:29:58.754Z,0.73
2024-02-08T12:32:59.797Z,0.50
2024-02-08T12:35:35.872Z,0.70
2024-02-08T12:38:20.162Z,0.70
2024-02-08T12:41:01.046Z,0.60
2024-02-08T12:43:57.272Z,1.50
2024-02-08T12:46:46.014Z,0.70
2024-02-08T12:49:51.675Z,0.77
2024-02-08T12:53:05.947Z,0.93
2024-02-08T12:56:14.961Z,1.10
2024-02-08T12:59:37.067Z,0.90
2024-02-08T13:08:51.501Z,1.10
2024-02-08T13:21:51.232Z,1.60
2024-02-08T13:24:43.166Z,1.83
2024-02-08T13:41:19.859Z,2.80
2024-02-08T13:44:27.138Z,3.20
2024-02-08T14:00:02.322Z,3.50
2024-02-08T14:09:20.635Z,3.23
2024-02-08T14:12:07.677Z,3.33
2024-02-08T14:15:10.710Z,3.67
2024-02-08T14:18:28.722Z,4.20
2024-02-08T14:21:05.192Z,3.87
2024-02-08T14:23:51.850Z,4.00
2024-02-08T14:26:41.058Z,3.47
2024-02-08T14:38:43.701Z,3.90
2024-02-08T14:41:27.502Z,3.87
2024-02-08T14:43:56.624Z,3.70
2024-02-08T14:46:27.838Z,4.87
2024-02-08T14:48:56.205Z,4.40
2024-02-08T14:51:39.133Z,3.97
2024-02-08T14:54:20.361Z,3.40
2024-02-08T14:57:06.653Z,5.13
2024-02-08T14:59:51.980Z,4.83
2024-02-08T15:02:25.140Z,4.80
2024-02-08T15:05:02.691Z,5.60
2024-02-08T15:07:50.177Z,4.80
2024-02-08T15:10:45.045Z,4.63
2024-02-08T15:13:20.889Z,4.60
2024-02-08T15:15:54.666Z,4.23
2024-02-08T15:18:32.451Z,4.83
2024-02-08T15:21:10.613Z,4.53
2024-02-08T15:23:50.477Z,4.47
2024-02-08T15:26:27.479Z,5.27
2024-02-08T15:29:00.885Z,5.90
2024-02-08T15:31:48.542Z,4.87
2024-02-08T15:34:29.291Z,4.57
2024-02-08T15:37:15.558Z,5.23
2024-02-08T15:40:11.513Z,5.27
2024-02-08T15:42:52.755Z,4.50
2024-02-08T15:45:22.727Z,5.53
2024-02-08T15:48:12.235Z,5.50
2024-02-08T15:50:47.452Z,5.47
2024-02-08T15:53:24.656Z,5.23
2024-02-08T15:55:57.378Z,4.53
2024-02-08T15:58:30.762Z,4.67
2024-02-08T16:01:28.777Z,4.83
2024-02-08T16:04:01.738Z,4.20
2024-02-08T16:06:44.712Z,4.03
2024-02-08T16:09:27.082Z,4.27
2024-02-08T16:12:01.733Z,4.63
2024-02-08T16:20:59.214Z,4.90
2024-02-08T16:26:40.112Z,4.30
2024-02-08T16:29:10.264Z,4.80
2024-02-08T16:34:36.825Z,4.30
2024-02-08T16:40:31.245Z,3.93
2024-02-08T16:43:12.249Z,5.20
2024-02-08T16:45:49.940Z,4.50
2024-02-08T16:48:36.984Z,3.27
2024-02-08T16:51:39.506Z,4.40
2024-02-08T17:07:48.827Z,4.87
2024-02-08T17:10:35.885Z,4.33
2024-02-08T17:13:46.537Z,4.20
2024-02-08T17:16:43.797Z,3.97
2024-02-08T17:22:58.909Z,4.90
2024-02-08T17:58:59.842Z,3.73
2024-02-08T18:08:03.474Z,4.67
2024-02-08T18:10:54.026Z,4.23
2024-02-08T18:23:31.174Z,4.50
2024-02-08T18:26:05.148Z,5.47
2024-02-08T18:31:36.089Z,4.60
2024-02-08T18:34:25.802Z,5.90
2024-02-08T18:42:59.941Z,5.73
2024-02-08T18:51:40.940Z,5.77
2024-02-08T18:54:12.928Z,5.50
2024-02-08T18:56:43.056Z,4.60
2024-02-08T18:59:15.760Z,5.67
2024-02-08T19:01:54.092Z,5.40
2024-02-08T19:04:26.819Z,6.23
2024-02-08T19:06:56.441Z,5.53
2024-02-08T19:09:30.917Z,6.40
2024-02-08T19:12:13.970Z,6.70
2024-02-08T19:14:51.239Z,7.03
2024-02-08T19:17:26.978Z,6.00
